sensor_id;sensor_type;location;lat;lon;timestamp;temperature;humidity
41939;DHT22;23057;48.554;14.454;2022-12-07T00:02:23;1.20;99.90
41939;DHT22;23057;48.554;14.454;2022-12-07T00:04:54;1.20;99.90
41939;DHT22;23057;48.554;14.454;2022-12-07T00:07:24;1.20;99.90
41939;DHT22;23057;48.554;14.454;2022-12-07T00:09:55;1.20;99.90
41939;DHT22;23057;48.554;14.454;2022-12-07T00:12:26;1.20;99.90
41939;DHT22;23057;48.554;14.454;2022-12-07T00:14:57;1.20;99.90
41939;DHT22;23057;48.554;14.454;2022-12-07T00:17:28;1.20;99.90
41939;DHT22;23057;48.554;14.454;2022-12-07T00:19:59;1.20;99.90
41939;DHT22;23057;48.554;14.454;2022-12-07T00:22:30;1.20;99.90
41939;DHT22;23057;48.554;14.454;2022-12-07T00:25:01;1.20;99.90
41939;DHT22;23057;48.554;14.454;2022-12-07T00:27:31;1.20;99.90
41939;DHT22;23057;48.554;14.454;2022-12-07T00:30:02;1.20;99.90
41939;DHT22;23057;48.554;14.454;2022-12-07T00:32:34;1.20;99.90
41939;DHT22;23057;48.554;14.454;2022-12-07T00:35:05;1.20;99.90
41939;DHT22;23057;48.554;14.454;2022-12-07T00:37:36;1.20;99.90
41939;DHT22;23057;48.554;14.454;2022-12-07T00:40:07;1.20;99.90
41939;DHT22;23057;48.554;14.454;2022-12-07T00:42:39;1.20;99.90
41939;DHT22;23057;48.554;14.454;2022-12-07T00:45:10;1.20;99.90
41939;DHT22;23057;48.554;14.454;2022-12-07T00:47:40;1.20;99.90
41939;DHT22;23057;48.554;14.454;2022-12-07T00:50:11;1.10;99.90
41939;DHT22;23057;48.554;14.454;2022-12-07T00:52:42;1.10;99.90
41939;DHT22;23057;48.554;14.454;2022-12-07T00:55:13;1.10;99.90
41939;DHT22;23057;48.554;14.454;2022-12-07T00:57:44;1.10;99.90
41939;DHT22;23057;48.554;14.454;2022-12-07T01:00:15;1.20;99.90
41939;DHT22;23057;48.554;14.454;2022-12-07T01:02:46;1.10;99.90
41939;DHT22;23057;48.554;14.454;2022-12-07T01:05:17;1.10;99.90
41939;DHT22;23057;48.554;14.454;2022-12-07T01:07:48;1.10;99.90
41939;DHT22;23057;48.554;14.454;2022-12-07T01:10:19;1.10;99.90
41939;DHT22;23057;48.554;14.454;2022-12-07T01:12:50;1.10;99.90
41939;DHT22;23057;48.554;14.454;2022-12-07T01:15:21;1.10;99.90
41939;DHT22;23057;48.554;14.454;2022-12-07T01:17:53;1.10;99.90
41939;DHT22;23057;48.554;14.454;2022-12-07T01:20:25;1.10;99.90
41939;DHT22;23057;48.554;14.454;2022-12-07T01:22:55;1.10;99.90
41939;DHT22;23057;48.554;14.454;2022-12-07T01:25:26;1.10;99.90
41939;DHT22;23057;48.554;14.454;2022-12-07T01:27:57;1.10;99.90
41939;DHT22;23057;48.554;14.454;2022-12-07T01:30:28;1.10;99.90
41939;DHT22;23057;48.554;14.454;2022-12-07T01:32:59;1.10;99.90
41939;DHT22;23057;48.554;14.454;2022-12-07T01:35:30;1.10;99.90
41939;DHT22;23057;48.554;14.454;2022-12-07T01:38:04;1.10;99.90
41939;DHT22;23057;48.554;14.454;2022-12-07T01:40:35;1.10;99.90
41939;DHT22;23057;48.554;14.454;2022-12-07T01:43:16;1.10;99.90
41939;DHT22;23057;48.554;14.454;2022-12-07T01:45:49;1.10;99.90
41939;DHT22;23057;48.554;14.454;2022-12-07T01:48:27;1.10;99.90
41939;DHT22;23057;48.554;14.454;2022-12-07T01:51:12;1.10;99.90
41939;DHT22;23057;48.554;14.454;2022-12-07T01:53:45;1.10;99.90
41939;DHT22;23057;48.554;14.454;2022-12-07T01:56:20;1.00;99.90
41939;DHT22;23057;48.554;14.454;2022-12-07T01:58:57;1.10;99.90
41939;DHT22;23057;48.554;14.454;2022-12-07T02:01:31;1.00;99.90
41939;DHT22;23057;48.554;14.454;2022-12-07T02:04:02;1.10;99.90
41939;DHT22;23057;48.554;14.454;2022-12-07T02:06:35;1.00;99.90
41939;DHT22;23057;48.554;14.454;2022-12-07T02:09:08;1.10;99.90
41939;DHT22;23057;48.554;14.454;2022-12-07T02:11:40;1.10;99.90
41939;DHT22;23057;48.554;14.454;2022-12-07T02:14:11;1.10;99.90
41939;DHT22;23057;48.554;14.454;2022-12-07T02:17:03;1.10;99.90
41939;DHT22;23057;48.554;14.454;2022-12-07T02:26:10;1.00;99.90
41939;DHT22;23057;48.554;14.454;2022-12-07T02:29:34;1.00;99.90
41939;DHT22;23057;48.554;14.454;2022-12-07T02:32:29;1.00;99.90
41939;DHT22;23057;48.554;14.454;2022-12-07T02:35:40;1.00;99.90
41939;DHT22;23057;48.554;14.454;2022-12-07T02:38:40;1.00;99.90
41939;DHT22;23057;48.554;14.454;2022-12-07T02:44:27;1.00;99.90
41939;DHT22;23057;48.554;14.454;2022-12-07T02:47:05;1.00;99.90
41939;DHT22;23057;48.554;14.454;2022-12-07T02:49:42;1.00;99.90
41939;DHT22;23057;48.554;14.454;2022-12-07T02:52:14;1.00;99.90
41939;DHT22;23057;48.554;14.454;2022-12-07T02:54:45;1.00;99.90
41939;DHT22;23057;48.554;14.454;2022-12-07T03:00:51;1.00;99.90
41939;DHT22;23057;48.554;14.454;2022-12-07T03:03:51;0.90;99.90
41939;DHT22;23057;48.554;14.454;2022-12-07T03:06:51;0.90;99.90
41939;DHT22;23057;48.554;14.454;2022-12-07T03:16:01;0.90;99.90
41939;DHT22;23057;48.554;14.454;2022-12-07T03:21:53;0.80;99.90
41939;DHT22;23057;48.554;14.454;2022-12-07T03:24:36;0.80;99.90
41939;DHT22;23057;48.554;14.454;2022-12-07T03:27:29;0.80;99.90
41939;DHT22;23057;48.554;14.454;2022-12-07T03:30:30;0.80;99.90
41939;DHT22;23057;48.554;14.454;2022-12-07T03:33:17;0.80;99.90
41939;DHT22;23057;48.554;14.454;2022-12-07T03:36:04;0.80;99.90
41939;DHT22;23057;48.554;14.454;2022-12-07T03:38:57;0.80;99.90
41939;DHT22;23057;48.554;14.454;2022-12-07T03:41:59;0.80;99.90
41939;DHT22;23057;48.554;14.454;2022-12-07T03:44:35;0.80;99.90
41939;DHT22;23057;48.554;14.454;2022-12-07T03:50:01;0.80;99.90
41939;DHT22;23057;48.554;14.454;2022-12-07T03:52:53;0.70;99.90
41939;DHT22;23057;48.554;14.454;2022-12-07T03:55:33;0.80;99.90
41939;DHT22;23057;48.554;14.454;2022-12-07T03:58:14;0.70;99.90
41939;DHT22;23057;48.554;14.454;2022-12-07T04:00:51;0.80;99.90
41939;DHT22;23057;48.554;14.454;2022-12-07T04:03:22;0.80;99.90
41939;DHT22;23057;48.554;14.454;2022-12-07T04:05:53;0.80;99.90
41939;DHT22;23057;48.554;14.454;2022-12-07T04:08:25;0.80;99.90
41939;DHT22;23057;48.554;14.454;2022-12-07T04:10:56;0.80;99.90
41939;DHT22;23057;48.554;14.454;2022-12-07T04:13:27;0.80;99.90
41939;DHT22;23057;48.554;14.454;2022-12-07T04:15:57;0.80;99.90
41939;DHT22;23057;48.554;14.454;2022-12-07T04:18:28;0.80;99.90
41939;DHT22;23057;48.554;14.454;2022-12-07T04:20:59;0.80;99.90
41939;DHT22;23057;48.554;14.454;2022-12-07T04:23:30;0.80;99.90
41939;DHT22;23057;48.554;14.454;2022-12-07T04:26:01;0.80;99.90
41939;DHT22;23057;48.554;14.454;2022-12-07T04:28:32;0.80;99.90
41939;DHT22;23057;48.554;14.454;2022-12-07T04:31:02;0.80;99.90
41939;DHT22;23057;48.554;14.454;2022-12-07T04:33:36;0.80;99.90
41939;DHT22;23057;48.554;14.454;2022-12-07T04:36:07;0.80;99.90
41939;DHT22;23057;48.554;14.454;2022-12-07T04:38:38;0.80;99.90
41939;DHT22;23057;48.554;14.454;2022-12-07T04:41:09;0.80;99.90
41939;DHT22;23057;48.554;14.454;2022-12-07T04:43:40;0.80;99.90
41939;DHT22;23057;48.554;14.454;2022-12-07T04:46:11;0.80;99.90
41939;DHT22;23057;48.554;14.454;2022-12-07T04:48:42;0.80;99.90
41939;DHT22;23057;48.554;14.454;2022-12-07T04:51:15;0.80;99.90
41939;DHT22;23057;48.554;14.454;2022-12-07T04:53:51;0.80;99.90
41939;DHT22;23057;48.554;14.454;2022-12-07T04:56:24;0.80;99.90
41939;DHT22;23057;48.554;14.454;2022-12-07T04:58:55;0.80;99.90
41939;DHT22;23057;48.554;14.454;2022-12-07T05:01:26;0.80;99.90
41939;DHT22;23057;48.554;14.454;2022-12-07T05:03:58;0.80;99.90
41939;DHT22;23057;48.554;14.454;2022-12-07T05:06:29;0.80;99.90
41939;DHT22;23057;48.554;14.454;2022-12-07T05:09:00;0.80;99.90
41939;DHT22;23057;48.554;14.454;2022-12-07T05:11:32;0.80;99.90
41939;DHT22;23057;48.554;14.454;2022-12-07T05:14:18;0.80;99.90
41939;DHT22;23057;48.554;14.454;2022-12-07T05:16:51;0.80;99.90
41939;DHT22;23057;48.554;14.454;2022-12-07T05:19:23;0.80;99.90
41939;DHT22;23057;48.554;14.454;2022-12-07T05:21:56;0.80;99.90
41939;DHT22;23057;48.554;14.454;2022-12-07T05:24:27;0.70;99.90
41939;DHT22;23057;48.554;14.454;2022-12-07T05:26:58;0.80;99.90
41939;DHT22;23057;48.554;14.454;2022-12-07T05:29:29;0.70;99.90
41939;DHT22;23057;48.554;14.454;2022-12-07T05:31:59;0.80;99.90
41939;DHT22;23057;48.554;14.454;2022-12-07T05:34:30;0.70;99.90
41939;DHT22;23057;48.554;14.454;2022-12-07T05:37:01;0.70;99.90
41939;DHT22;23057;48.554;14.454;2022-12-07T05:39:32;0.70;99.90
41939;DHT22;23057;48.554;14.454;2022-12-07T05:42:03;0.70;99.90
41939;DHT22;23057;48.554;14.454;2022-12-07T05:44:45;0.70;99.90
41939;DHT22;23057;48.554;14.454;2022-12-07T05:47:17;0.70;99.90
41939;DHT22;23057;48.554;14.454;2022-12-07T05:49:47;0.70;99.90
41939;DHT22;23057;48.554;14.454;2022-12-07T05:52:18;0.70;99.90
41939;DHT22;23057;48.554;14.454;2022-12-07T05:54:49;0.60;99.90
41939;DHT22;23057;48.554;14.454;2022-12-07T05:57:20;0.70;99.90
41939;DHT22;23057;48.554;14.454;2022-12-07T05:59:51;0.60;99.90
41939;DHT22;23057;48.554;14.454;2022-12-07T06:02:22;0.60;99.90
41939;DHT22;23057;48.554;14.454;2022-12-07T06:04:53;0.60;99.90
41939;DHT22;23057;48.554;14.454;2022-12-07T06:07:24;0.70;99.90
41939;DHT22;23057;48.554;14.454;2022-12-07T06:09:55;0.60;99.90
41939;DHT22;23057;48.554;14.454;2022-12-07T06:12:25;0.70;99.90
41939;DHT22;23057;48.554;14.454;2022-12-07T06:15:06;0.60;99.90
41939;DHT22;23057;48.554;14.454;2022-12-07T06:17:37;0.70;99.90
41939;DHT22;23057;48.554;14.454;2022-12-07T06:20:08;0.60;99.90
41939;DHT22;23057;48.554;14.454;2022-12-07T06:22:39;0.60;99.90
41939;DHT22;23057;48.554;14.454;2022-12-07T06:25:10;0.60;99.90
41939;DHT22;23057;48.554;14.454;2022-12-07T06:27:41;0.60;99.90
41939;DHT22;23057;48.554;14.454;2022-12-07T06:30:12;0.60;99.90
41939;DHT22;23057;48.554;14.454;2022-12-07T06:32:43;0.60;99.90
41939;DHT22;23057;48.554;14.454;2022-12-07T06:35:14;0.60;99.90
41939;DHT22;23057;48.554;14.454;2022-12-07T06:37:45;0.60;99.90
41939;DHT22;23057;48.554;14.454;2022-12-07T06:40:15;0.60;99.90
41939;DHT22;23057;48.554;14.454;2022-12-07T06:42:46;0.50;99.90
41939;DHT22;23057;48.554;14.454;2022-12-07T06:45:17;0.50;99.90
41939;DHT22;23057;48.554;14.454;2022-12-07T06:47:48;0.50;99.90
41939;DHT22;23057;48.554;14.454;2022-12-07T06:50:19;0.50;99.90
41939;DHT22;23057;48.554;14.454;2022-12-07T06:52:51;0.50;99.90
41939;DHT22;23057;48.554;14.454;2022-12-07T06:55:22;0.40;99.90
41939;DHT22;23057;48.554;14.454;2022-12-07T06:57:53;0.40;99.90
41939;DHT22;23057;48.554;14.454;2022-12-07T07:00:24;0.40;99.90
41939;DHT22;23057;48.554;14.454;2022-12-07T07:02:55;0.40;99.90
41939;DHT22;23057;48.554;14.454;2022-12-07T07:05:26;0.40;99.90
41939;DHT22;23057;48.554;14.454;2022-12-07T07:07:57;0.40;99.90
41939;DHT22;23057;48.554;14.454;2022-12-07T07:10:28;0.40;99.90
41939;DHT22;23057;48.554;14.454;2022-12-07T07:12:59;0.50;99.90
41939;DHT22;23057;48.554;14.454;2022-12-07T07:15:30;0.50;99.90
41939;DHT22;23057;48.554;14.454;2022-12-07T07:18:02;0.50;99.90
41939;DHT22;23057;48.554;14.454;2022-12-07T07:20:34;0.50;99.90
41939;DHT22;23057;48.554;14.454;2022-12-07T07:23:05;0.40;99.90
41939;DHT22;23057;48.554;14.454;2022-12-07T07:25:37;0.40;99.90
41939;DHT22;23057;48.554;14.454;2022-12-07T07:28:08;0.40;99.90
41939;DHT22;23057;48.554;14.454;2022-12-07T07:30:39;0.40;99.90
41939;DHT22;23057;48.554;14.454;2022-12-07T07:33:11;0.40;99.90
41939;DHT22;23057;48.554;14.454;2022-12-07T07:35:42;0.50;99.90
41939;DHT22;23057;48.554;14.454;2022-12-07T07:38:13;0.50;99.90
41939;DHT22;23057;48.554;14.454;2022-12-07T07:40:43;0.40;99.90
41939;DHT22;23057;48.554;14.454;2022-12-07T07:43:15;0.40;99.90
41939;DHT22;23057;48.554;14.454;2022-12-07T07:45:46;0.30;99.90
41939;DHT22;23057;48.554;14.454;2022-12-07T07:48:16;0.20;99.90
41939;DHT22;23057;48.554;14.454;2022-12-07T07:50:47;0.10;99.90
41939;DHT22;23057;48.554;14.454;2022-12-07T07:53:18;0.20;99.90
41939;DHT22;23057;48.554;14.454;2022-12-07T07:55:53;0.30;99.90
41939;DHT22;23057;48.554;14.454;2022-12-07T07:58:25;0.30;20.80
41939;DHT22;23057;48.554;14.454;2022-12-07T08:00:55;0.30;1.00
41939;DHT22;23057;48.554;14.454;2022-12-07T08:03:26;0.30;1.00
41939;DHT22;23057;48.554;14.454;2022-12-07T08:05:57;0.30;1.00
41939;DHT22;23057;48.554;14.454;2022-12-07T08:08:28;0.60;99.90
41939;DHT22;23057;48.554;14.454;2022-12-07T08:10:59;0.80;99.90
41939;DHT22;23057;48.554;14.454;2022-12-07T08:13:31;0.90;99.90
41939;DHT22;23057;48.554;14.454;2022-12-07T08:16:07;1.00;99.90
41939;DHT22;23057;48.554;14.454;2022-12-07T08:18:41;0.80;99.90
41939;DHT22;23057;48.554;14.454;2022-12-07T08:21:14;0.70;99.90
41939;DHT22;23057;48.554;14.454;2022-12-07T08:23:46;0.50;99.90
41939;DHT22;23057;48.554;14.454;2022-12-07T08:26:17;0.40;99.90
41939;DHT22;23057;48.554;14.454;2022-12-07T08:28:47;0.50;1.00
41939;DHT22;23057;48.554;14.454;2022-12-07T08:31:18;0.60;1.00
41939;DHT22;23057;48.554;14.454;2022-12-07T08:33:50;0.50;1.00
41939;DHT22;23057;48.554;14.454;2022-12-07T08:36:21;0.40;54.90
41939;DHT22;23057;48.554;14.454;2022-12-07T08:38:53;0.30;99.90
41939;DHT22;23057;48.554;14.454;2022-12-07T08:41:24;0.20;99.90
41939;DHT22;23057;48.554;14.454;2022-12-07T08:43:54;0.50;99.90
41939;DHT22;23057;48.554;14.454;2022-12-07T08:49:16;0.70;99.90
41939;DHT22;23057;48.554;14.454;2022-12-07T08:51:55;0.80;99.90
41939;DHT22;23057;48.554;14.454;2022-12-07T08:54:28;0.80;99.90
41939;DHT22;23057;48.554;14.454;2022-12-07T08:56:59;0.80;99.90
41939;DHT22;23057;48.554;14.454;2022-12-07T08:59:30;0.80;99.90
41939;DHT22;23057;48.554;14.454;2022-12-07T09:02:05;0.70;99.90
41939;DHT22;23057;48.554;14.454;2022-12-07T09:04:36;0.70;99.90
41939;DHT22;23057;48.554;14.454;2022-12-07T09:07:07;0.70;99.90
41939;DHT22;23057;48.554;14.454;2022-12-07T09:09:39;0.70;99.90
41939;DHT22;23057;48.554;14.454;2022-12-07T09:12:10;0.80;99.90
41939;DHT22;23057;48.554;14.454;2022-12-07T09:14:41;0.90;99.90
41939;DHT22;23057;48.554;14.454;2022-12-07T09:17:12;0.80;99.90
41939;DHT22;23057;48.554;14.454;2022-12-07T09:19:43;0.80;99.90
41939;DHT22;23057;48.554;14.454;2022-12-07T09:22:14;1.00;99.90
41939;DHT22;23057;48.554;14.454;2022-12-07T09:24:45;1.00;99.90
41939;DHT22;23057;48.554;14.454;2022-12-07T09:27:16;1.00;99.90
41939;DHT22;23057;48.554;14.454;2022-12-07T09:29:48;0.70;99.90
41939;DHT22;23057;48.554;14.454;2022-12-07T09:32:20;0.90;96.60
41939;DHT22;23057;48.554;14.454;2022-12-07T09:34:50;0.90;27.20
41939;DHT22;23057;48.554;14.454;2022-12-07T09:37:21;0.80;1.00
41939;DHT22;23057;48.554;14.454;2022-12-07T09:39:53;0.70;1.00
41939;DHT22;23057;48.554;14.454;2022-12-07T09:42:29;0.70;1.00
41939;DHT22;23057;48.554;14.454;2022-12-07T09:45:10;0.70;1.00
41939;DHT22;23057;48.554;14.454;2022-12-07T09:47:45;0.80;1.00
41939;DHT22;23057;48.554;14.454;2022-12-07T09:50:21;0.90;99.90
41939;DHT22;23057;48.554;14.454;2022-12-07T09:53:34;1.10;99.90
41939;DHT22;23057;48.554;14.454;2022-12-07T09:56:15;1.10;99.90
41939;DHT22;23057;48.554;14.454;2022-12-07T09:58:54;1.10;99.90
41939;DHT22;23057;48.554;14.454;2022-12-07T10:01:33;1.20;99.90
41939;DHT22;23057;48.554;14.454;2022-12-07T10:04:17;1.30;99.90
41939;DHT22;23057;48.554;14.454;2022-12-07T10:06:52;1.40;99.90
41939;DHT22;23057;48.554;14.454;2022-12-07T10:09:23;1.20;99.90
41939;DHT22;23057;48.554;14.454;2022-12-07T10:14:54;1.30;99.90
41939;DHT22;23057;48.554;14.454;2022-12-07T10:17:41;1.60;99.90
41939;DHT22;23057;48.554;14.454;2022-12-07T10:20:21;1.70;99.90
41939;DHT22;23057;48.554;14.454;2022-12-07T10:23:05;1.60;99.90
41939;DHT22;23057;48.554;14.454;2022-12-07T10:25:48;1.20;99.90
41939;DHT22;23057;48.554;14.454;2022-12-07T10:28:20;1.10;99.90
41939;DHT22;23057;48.554;14.454;2022-12-07T10:30:56;0.90;99.90
41939;DHT22;23057;48.554;14.454;2022-12-07T10:33:38;1.20;99.90
41939;DHT22;23057;48.554;14.454;2022-12-07T10:39:22;1.20;99.90
41939;DHT22;23057;48.554;14.454;2022-12-07T10:42:02;1.40;99.90
41939;DHT22;23057;48.554;14.454;2022-12-07T10:44:34;1.80;99.90
41939;DHT22;23057;48.554;14.454;2022-12-07T10:47:08;2.20;99.90
41939;DHT22;23057;48.554;14.454;2022-12-07T11:02:37;2.10;99.90
41939;DHT22;23057;48.554;14.454;2022-12-07T11:10:18;1.80;99.90
41939;DHT22;23057;48.554;14.454;2022-12-07T11:37:38;1.60;3.30
41939;DHT22;23057;48.554;14.454;2022-12-07T11:40:28;1.90;62.50
41939;DHT22;23057;48.554;14.454;2022-12-07T11:43:26;2.20;1.00
41939;DHT22;23057;48.554;14.454;2022-12-07T11:46:15;2.20;99.90
41939;DHT22;23057;48.554;14.454;2022-12-07T11:51:45;2.60;99.90
41939;DHT22;23057;48.554;14.454;2022-12-07T11:54:34;2.60;99.90
41939;DHT22;23057;48.554;14.454;2022-12-07T11:57:34;2.30;99.90
41939;DHT22;23057;48.554;14.454;2022-12-07T12:00:17;1.90;99.90
41939;DHT22;23057;48.554;14.454;2022-12-07T12:03:02;1.90;1.00
41939;DHT22;23057;48.554;14.454;2022-12-07T12:05:43;1.90;1.00
41939;DHT22;23057;48.554;14.454;2022-12-07T12:09:02;1.70;1.00
41939;DHT22;23057;48.554;14.454;2022-12-07T12:17:13;1.70;99.90
41939;DHT22;23057;48.554;14.454;2022-12-07T12:26:21;1.60;99.90
41939;DHT22;23057;48.554;14.454;2022-12-07T12:29:04;1.60;99.90
41939;DHT22;23057;48.554;14.454;2022-12-07T12:32:15;1.60;99.90
41939;DHT22;23057;48.554;14.454;2022-12-07T12:34:58;1.70;99.90
41939;DHT22;23057;48.554;14.454;2022-12-07T12:45:27;2.00;99.90
41939;DHT22;23057;48.554;14.454;2022-12-07T12:48:26;1.80;99.90
41939;DHT22;23057;48.554;14.454;2022-12-07T12:51:36;1.80;99.90
41939;DHT22;23057;48.554;14.454;2022-12-07T12:54:28;1.60;99.90
41939;DHT22;23057;48.554;14.454;2022-12-07T12:57:37;1.70;99.90
41939;DHT22;23057;48.554;14.454;2022-12-07T13:00:22;1.70;99.90
41939;DHT22;23057;48.554;14.454;2022-12-07T13:02:59;1.70;99.90
41939;DHT22;23057;48.554;14.454;2022-12-07T13:05:30;1.80;99.90
41939;DHT22;23057;48.554;14.454;2022-12-07T13:08:16;1.80;99.90
41939;DHT22;23057;48.554;14.454;2022-12-07T13:11:17;1.90;99.90
41939;DHT22;23057;48.554;14.454;2022-12-07T13:13:50;1.80;99.90
41939;DHT22;23057;48.554;14.454;2022-12-07T13:18:52;1.70;99.90
41939;DHT22;23057;48.554;14.454;2022-12-07T13:24:00;1.80;99.90
41939;DHT22;23057;48.554;14.454;2022-12-07T13:26:41;1.60;99.20
41939;DHT22;23057;48.554;14.454;2022-12-07T13:29:19;1.60;99.90
41939;DHT22;23057;48.554;14.454;2022-12-07T13:31:56;1.60;99.90
41939;DHT22;23057;48.554;14.454;2022-12-07T13:34:37;1.60;99.90
41939;DHT22;23057;48.554;14.454;2022-12-07T13:37:26;1.70;99.90
41939;DHT22;23057;48.554;14.454;2022-12-07T13:40:17;1.80;99.90
41939;DHT22;23057;48.554;14.454;2022-12-07T13:43:03;1.70;99.90
41939;DHT22;23057;48.554;14.454;2022-12-07T13:45:42;1.60;99.90
41939;DHT22;23057;48.554;14.454;2022-12-07T13:48:32;1.50;99.90
41939;DHT22;23057;48.554;14.454;2022-12-07T13:51:22;1.40;99.90
41939;DHT22;23057;48.554;14.454;2022-12-07T13:54:06;1.40;99.90
41939;DHT22;23057;48.554;14.454;2022-12-07T13:56:42;1.50;99.90
41939;DHT22;23057;48.554;14.454;2022-12-07T13:59:20;1.40;99.90
41939;DHT22;23057;48.554;14.454;2022-12-07T14:01:54;1.40;99.90
41939;DHT22;23057;48.554;14.454;2022-12-07T14:04:34;1.30;99.90
41939;DHT22;23057;48.554;14.454;2022-12-07T14:07:26;1.30;99.90
41939;DHT22;23057;48.554;14.454;2022-12-07T14:10:00;1.30;99.90
41939;DHT22;23057;48.554;14.454;2022-12-07T14:12:36;1.20;99.90
41939;DHT22;23057;48.554;14.454;2022-12-07T14:15:20;1.20;99.90
41939;DHT22;23057;48.554;14.454;2022-12-07T14:17:57;1.20;1.00
41939;DHT22;23057;48.554;14.454;2022-12-07T14:20:39;1.10;1.00
41939;DHT22;23057;48.554;14.454;2022-12-07T14:23:25;1.10;1.00
41939;DHT22;23057;48.554;14.454;2022-12-07T14:26:14;1.10;1.00
41939;DHT22;23057;48.554;14.454;2022-12-07T14:28:51;1.00;37.70
41939;DHT22;23057;48.554;14.454;2022-12-07T14:31:24;0.90;99.90
41939;DHT22;23057;48.554;14.454;2022-12-07T14:33:59;0.90;99.90
41939;DHT22;23057;48.554;14.454;2022-12-07T14:36:30;0.90;99.90
41939;DHT22;23057;48.554;14.454;2022-12-07T14:39:01;0.90;99.90
41939;DHT22;23057;48.554;14.454;2022-12-07T14:41:32;0.90;99.90
41939;DHT22;23057;48.554;14.454;2022-12-07T14:44:22;0.90;99.90
41939;DHT22;23057;48.554;14.454;2022-12-07T14:46:53;0.80;99.90
41939;DHT22;23057;48.554;14.454;2022-12-07T14:49:25;0.80;99.90
41939;DHT22;23057;48.554;14.454;2022-12-07T14:51:55;0.80;99.90
41939;DHT22;23057;48.554;14.454;2022-12-07T14:54:28;0.70;99.90
41939;DHT22;23057;48.554;14.454;2022-12-07T14:57:02;0.60;99.90
41939;DHT22;23057;48.554;14.454;2022-12-07T14:59:33;0.60;99.90
41939;DHT22;23057;48.554;14.454;2022-12-07T15:02:04;0.60;99.90
41939;DHT22;23057;48.554;14.454;2022-12-07T15:04:37;0.50;99.90
41939;DHT22;23057;48.554;14.454;2022-12-07T15:07:19;0.50;99.90
41939;DHT22;23057;48.554;14.454;2022-12-07T15:09:51;0.40;99.90
41939;DHT22;23057;48.554;14.454;2022-12-07T15:12:22;0.30;99.90
41939;DHT22;23057;48.554;14.454;2022-12-07T15:14:55;0.20;99.90
41939;DHT22;23057;48.554;14.454;2022-12-07T15:17:26;0.10;99.90
41939;DHT22;23057;48.554;14.454;2022-12-07T15:19:56;0.10;99.90
41939;DHT22;23057;48.554;14.454;2022-12-07T15:22:27;0.10;99.90
41939;DHT22;23057;48.554;14.454;2022-12-07T15:25:00;0.10;99.90
41939;DHT22;23057;48.554;14.454;2022-12-07T15:27:33;0.10;99.90
41939;DHT22;23057;48.554;14.454;2022-12-07T15:30:05;0.00;99.90
41939;DHT22;23057;48.554;14.454;2022-12-07T15:32:37;0.00;99.90
41939;DHT22;23057;48.554;14.454;2022-12-07T15:35:08;0.00;99.90
41939;DHT22;23057;48.554;14.454;2022-12-07T15:37:39;-0.10;99.90
41939;DHT22;23057;48.554;14.454;2022-12-07T15:40:10;-0.10;99.90
41939;DHT22;23057;48.554;14.454;2022-12-07T15:42:42;-0.20;99.90
41939;DHT22;23057;48.554;14.454;2022-12-07T15:45:13;-0.10;99.90
41939;DHT22;23057;48.554;14.454;2022-12-07T15:47:44;-0.10;99.90
41939;DHT22;23057;48.554;14.454;2022-12-07T15:50:16;-0.10;99.90
41939;DHT22;23057;48.554;14.454;2022-12-07T15:52:47;0.00;99.90
41939;DHT22;23057;48.554;14.454;2022-12-07T15:55:19;0.10;99.90
41939;DHT22;23057;48.554;14.454;2022-12-07T15:57:50;0.10;99.90
41939;DHT22;23057;48.554;14.454;2022-12-07T16:00:20;0.20;99.90
41939;DHT22;23057;48.554;14.454;2022-12-07T16:02:51;0.30;99.90
41939;DHT22;23057;48.554;14.454;2022-12-07T16:05:22;0.30;99.90
41939;DHT22;23057;48.554;14.454;2022-12-07T16:07:53;0.40;99.90
41939;DHT22;23057;48.554;14.454;2022-12-07T16:10:24;0.40;99.90
41939;DHT22;23057;48.554;14.454;2022-12-07T16:12:55;0.40;99.90
41939;DHT22;23057;48.554;14.454;2022-12-07T16:15:26;0.40;99.90
41939;DHT22;23057;48.554;14.454;2022-12-07T16:17:57;0.40;99.90
41939;DHT22;23057;48.554;14.454;2022-12-07T16:20:28;0.30;99.90
41939;DHT22;23057;48.554;14.454;2022-12-07T16:22:58;0.30;99.90
41939;DHT22;23057;48.554;14.454;2022-12-07T16:25:29;0.30;99.90
41939;DHT22;23057;48.554;14.454;2022-12-07T16:28:00;0.20;99.90
41939;DHT22;23057;48.554;14.454;2022-12-07T16:30:31;0.20;99.90
41939;DHT22;23057;48.554;14.454;2022-12-07T16:33:02;0.10;99.90
41939;DHT22;23057;48.554;14.454;2022-12-07T16:35:33;0.10;99.90
41939;DHT22;23057;48.554;14.454;2022-12-07T16:38:04;0.20;99.90
41939;DHT22;23057;48.554;14.454;2022-12-07T16:40:34;0.20;99.90
41939;DHT22;23057;48.554;14.454;2022-12-07T16:43:05;0.20;99.90
41939;DHT22;23057;48.554;14.454;2022-12-07T16:45:36;0.20;99.90
41939;DHT22;23057;48.554;14.454;2022-12-07T16:48:07;0.20;99.90
41939;DHT22;23057;48.554;14.454;2022-12-07T16:50:39;0.20;99.90
41939;DHT22;23057;48.554;14.454;2022-12-07T16:53:12;0.20;99.90
41939;DHT22;23057;48.554;14.454;2022-12-07T16:55:46;0.20;99.90
41939;DHT22;23057;48.554;14.454;2022-12-07T16:58:17;0.20;99.90
41939;DHT22;23057;48.554;14.454;2022-12-07T17:00:48;0.20;99.90
41939;DHT22;23057;48.554;14.454;2022-12-07T17:03:19;0.20;99.90
41939;DHT22;23057;48.554;14.454;2022-12-07T17:05:50;0.30;99.90
41939;DHT22;23057;48.554;14.454;2022-12-07T17:08:21;0.30;99.90
41939;DHT22;23057;48.554;14.454;2022-12-07T17:10:52;0.30;99.90
41939;DHT22;23057;48.554;14.454;2022-12-07T17:13:23;0.30;99.90
41939;DHT22;23057;48.554;14.454;2022-12-07T17:16:12;0.30;99.90
41939;DHT22;23057;48.554;14.454;2022-12-07T17:18:43;0.30;99.90
41939;DHT22;23057;48.554;14.454;2022-12-07T17:21:14;0.40;99.90
41939;DHT22;23057;48.554;14.454;2022-12-07T17:23:45;0.40;99.90
41939;DHT22;23057;48.554;14.454;2022-12-07T17:26:20;0.40;99.90
41939;DHT22;23057;48.554;14.454;2022-12-07T17:28:54;0.40;99.90
41939;DHT22;23057;48.554;14.454;2022-12-07T17:31:25;0.40;99.90
41939;DHT22;23057;48.554;14.454;2022-12-07T17:33:56;0.40;99.90
41939;DHT22;23057;48.554;14.454;2022-12-07T17:36:30;0.40;99.90
41939;DHT22;23057;48.554;14.454;2022-12-07T17:39:09;0.40;99.90
41939;DHT22;23057;48.554;14.454;2022-12-07T17:41:44;0.40;99.90
41939;DHT22;23057;48.554;14.454;2022-12-07T17:44:34;0.50;99.90
41939;DHT22;23057;48.554;14.454;2022-12-07T17:47:05;0.40;99.90
41939;DHT22;23057;48.554;14.454;2022-12-07T17:49:37;0.40;99.90
41939;DHT22;23057;48.554;14.454;2022-12-07T17:52:08;0.50;99.90
41939;DHT22;23057;48.554;14.454;2022-12-07T17:54:58;0.50;99.90
41939;DHT22;23057;48.554;14.454;2022-12-07T17:57:29;0.50;99.90
41939;DHT22;23057;48.554;14.454;2022-12-07T18:00:00;0.40;99.90
41939;DHT22;23057;48.554;14.454;2022-12-07T18:02:31;0.50;99.90
41939;DHT22;23057;48.554;14.454;2022-12-07T18:05:02;0.50;99.90
41939;DHT22;23057;48.554;14.454;2022-12-07T18:07:34;0.60;99.90
41939;DHT22;23057;48.554;14.454;2022-12-07T18:10:05;0.50;99.90